Time;durP1;ratioP1;P1;durP2;ratioP2;P2;SDS_P1;SDS_P2;PMS_P1;PMS_P2;Temp;Humidity;BMP_temperature;BMP_pressure;BME280_temperature;BME280_humidity;BME280_pressure;Samples;Min_cycle;Max_cycle;Signal;HPM_P1;HPM_P2
2021/03/13 01:42:04;;;;;;;3.80;1.00;;;11.00;97.30;;;;;;4977395;23;20320;-96
2021/03/13 01:44:39;;;;;;;1.30;1.10;;;10.90;98.10;;;;;;4916284;29;20275;-96
2021/03/13 01:47:20;;;;;;;1.40;0.70;;;10.80;97.80;;;;;;4921390;29;20221;-96
2021/03/13 01:49:55;;;;;;;2.23;0.97;;;10.70;96.50;;;;;;4923634;29;20198;-96
2021/03/13 02:03:15;;;;;;;2.13;1.80;;;10.30;99.10;;;;;;5817329;23;20466;-90
2021/03/13 02:11:22;;;;;;;5.20;4.17;;;9.90;99.90;;;;;;4933783;29;20220;-96
2021/03/13 02:14:16;;;;;;;4.00;2.70;;;9.70;99.90;;;;;;4931305;23;20250;-95
2021/03/13 02:16:54;;;;;;;4.00;1.70;;;9.60;99.90;;;;;;4907529;29;20234;-92
2021/03/13 02:41:57;;;;;;;2.97;1.73;;;8.60;99.90;;;;;;5215174;23;21346;-87
2021/03/13 02:44:27;;;;;;;4.73;1.40;;;8.60;99.90;;;;;;4904991;29;20210;-89
2021/03/13 02:46:59;;;;;;;2.17;1.47;;;8.50;99.90;;;;;;4902383;29;20205;-89
2021/03/13 02:49:39;;;;;;;1.97;1.33;;;8.40;99.90;;;;;;4905064;29;20213;-89
2021/03/13 02:52:10;;;;;;;1.43;1.00;;;8.30;99.90;;;;;;4904231;29;20218;-88
2021/03/13 02:54:47;;;;;;;5.47;1.47;;;8.30;99.90;;;;;;4902798;29;20216;-88
2021/03/13 02:57:23;;;;;;;2.20;1.63;;;8.10;99.90;;;;;;4901336;29;20241;-88
2021/03/13 02:59:54;;;;;;;2.20;1.40;;;8.10;99.90;;;;;;4903037;29;21031;-88
2021/03/13 03:02:26;;;;;;;1.83;1.60;;;8.00;99.90;;;;;;4900675;29;20217;-88
2021/03/13 03:04:58;;;;;;;2.93;1.53;;;8.00;99.90;;;;;;4890134;29;20277;-88
2021/03/13 03:07:30;;;;;;;3.23;2.13;;;7.90;99.90;;;;;;4901545;29;20586;-88
2021/03/13 03:10:01;;;;;;;4.37;2.50;;;7.80;99.90;;;;;;4900623;29;20217;-85
2021/03/13 03:12:34;;;;;;;3.93;2.27;;;7.80;99.90;;;;;;4900787;29;20666;-86
2021/03/13 03:15:08;;;;;;;3.23;2.03;;;7.80;99.90;;;;;;4902784;29;20241;-87
2021/03/13 03:17:40;;;;;;;3.93;2.10;;;7.80;99.90;;;;;;4901808;29;20264;-85
2021/03/13 03:20:15;;;;;;;4.93;2.10;;;7.70;99.90;;;;;;4900201;29;20222;-87
2021/03/13 03:22:46;;;;;;;2.20;1.80;;;7.70;99.90;;;;;;4901385;29;20392;-87
2021/03/13 03:25:17;;;;;;;3.60;2.00;;;7.70;99.90;;;;;;4900095;29;20217;-86
2021/03/13 03:27:51;;;;;;;4.13;2.37;;;7.60;99.90;;;;;;4902144;29;20220;-89
2021/03/13 03:30:29;;;;;;;4.17;2.60;;;7.60;99.90;;;;;;4916747;29;20217;-89
2021/03/13 03:33:00;;;;;;;3.40;2.43;;;7.50;99.90;;;;;;4909486;29;20209;-89
2021/03/13 03:35:32;;;;;;;4.17;2.60;;;7.50;99.90;;;;;;4911902;29;20216;-89
2021/03/13 03:38:04;;;;;;;4.40;3.00;;;7.40;99.90;;;;;;4916907;29;20310;-89
2021/03/13 03:40:35;;;;;;;6.37;3.83;;;7.40;99.90;;;;;;4912502;29;20217;-88
2021/03/13 03:43:14;;;;;;;4.60;4.20;;;7.40;99.90;;;;;;4901113;29;20296;-89
2021/03/13 03:45:52;;;;;;;4.13;3.70;;;7.30;99.90;;;;;;4890666;29;20251;-90
2021/03/13 03:48:25;;;;;;;4.93;3.63;;;7.20;99.90;;;;;;4898739;29;20221;-87
2021/03/13 03:50:55;;;;;;;6.77;3.43;;;7.20;99.90;;;;;;4900597;29;20209;-87
2021/03/13 03:53:31;;;;;;;4.80;4.30;;;7.10;99.90;;;;;;4899185;29;20260;-87
2021/03/13 03:56:06;;;;;;;4.63;3.90;;;7.20;99.90;;;;;;4898365;29;20341;-88
2021/03/13 03:58:43;;;;;;;4.73;3.40;;;7.10;99.90;;;;;;4899250;29;20206;-88
2021/03/13 04:01:15;;;;;;;3.83;3.00;;;7.10;99.90;;;;;;4901227;29;20477;-88
2021/03/13 04:03:51;;;;;;;3.27;2.90;;;7.00;99.90;;;;;;4901509;29;20227;-87
2021/03/13 04:06:23;;;;;;;2.90;2.30;;;7.00;99.90;;;;;;4903999;29;20236;-87
2021/03/13 04:08:58;;;;;;;9.50;3.20;;;6.90;99.90;;;;;;4907875;29;20213;-87
2021/03/13 04:11:29;;;;;;;6.93;5.03;;;6.90;99.90;;;;;;4909290;29;20204;-87
2021/03/13 04:14:03;;;;;;;4.80;4.03;;;6.80;99.90;;;;;;4909981;29;20233;-87
2021/03/13 04:16:38;;;;;;;7.47;3.97;;;6.80;99.90;;;;;;4899405;29;20237;-87
2021/03/13 04:19:11;;;;;;;5.63;3.40;;;6.80;99.90;;;;;;4900724;29;20285;-87
2021/03/13 04:21:44;;;;;;;4.00;3.10;;;6.70;99.90;;;;;;4899879;29;20209;-87
2021/03/13 04:24:16;;;;;;;4.97;2.93;;;6.70;99.90;;;;;;4900238;29;20208;-87
2021/03/13 04:26:48;;;;;;;3.57;3.00;;;6.60;99.90;;;;;;4900426;29;20206;-86
2021/03/13 04:29:21;;;;;;;3.30;2.10;;;6.50;99.90;;;;;;4899856;29;20274;-86
2021/03/13 04:31:52;;;;;;;5.23;2.67;;;6.50;99.90;;;;;;4900048;29;20245;-87
2021/03/13 04:34:24;;;;;;;5.57;3.77;;;6.40;99.90;;;;;;4900657;29;20210;-87
2021/03/13 04:36:55;;;;;;;4.93;3.23;;;6.40;99.90;;;;;;4903395;29;20933;-86
2021/03/13 04:39:26;;;;;;;5.43;2.70;;;6.40;99.90;;;;;;4905193;29;20240;-87
2021/03/13 04:41:57;;;;;;;4.10;3.27;;;6.30;99.90;;;;;;4906619;29;20238;-87
2021/03/13 04:44:31;;;;;;;3.50;2.70;;;6.30;99.90;;;;;;4904447;29;20247;-85
2021/03/13 04:47:02;;;;;;;4.70;3.20;;;6.30;99.90;;;;;;4901247;29;20249;-87
2021/03/13 04:49:33;;;;;;;6.17;3.70;;;6.30;99.90;;;;;;4886777;29;20312;-86
2021/03/13 04:52:05;;;;;;;6.20;4.27;;;6.30;99.90;;;;;;4888090;29;20217;-86
2021/03/13 04:54:39;;;;;;;4.33;3.53;;;6.30;99.90;;;;;;4886695;29;20828;-86
2021/03/13 04:57:11;;;;;;;4.70;3.70;;;6.30;99.90;;;;;;4899766;29;20248;-86
2021/03/13 04:59:43;;;;;;;5.63;4.00;;;6.20;99.90;;;;;;4900895;29;20206;-86
2021/03/13 05:02:14;;;;;;;5.27;3.57;;;6.20;99.90;;;;;;4898679;29;20194;-86
2021/03/13 05:04:46;;;;;;;5.90;3.37;;;6.20;99.90;;;;;;4898136;29;20205;-87
2021/03/13 05:07:20;;;;;;;6.37;3.80;;;6.10;99.90;;;;;;4899114;29;20241;-87
2021/03/13 05:09:50;;;;;;;5.87;3.93;;;6.10;99.90;;;;;;4905675;29;20213;-88
2021/03/13 05:12:26;;;;;;;5.17;3.23;;;6.10;99.90;;;;;;4902186;29;20218;-87
2021/03/13 05:14:58;;;;;;;5.93;3.07;;;6.00;99.90;;;;;;4902173;29;20243;-86
2021/03/13 05:17:29;;;;;;;4.90;2.93;;;6.00;99.90;;;;;;4900333;29;20271;-86
2021/03/13 05:20:00;;;;;;;5.33;2.97;;;6.00;99.90;;;;;;4901766;29;20248;-86
2021/03/13 05:22:32;;;;;;;5.23;2.93;;;6.00;99.90;;;;;;4901762;29;20220;-87
2021/03/13 05:25:03;;;;;;;4.57;3.27;;;5.90;99.90;;;;;;4902017;29;20273;-88
2021/03/13 05:27:38;;;;;;;5.57;2.70;;;5.90;99.90;;;;;;4901222;29;20214;-88
2021/03/13 05:30:13;;;;;;;4.57;2.80;;;5.90;99.90;;;;;;4900923;29;20261;-86
2021/03/13 05:32:44;;;;;;;5.80;3.27;;;5.80;99.90;;;;;;4905287;29;20271;-93
2021/03/13 05:35:15;;;;;;;6.07;2.70;;;5.80;99.90;;;;;;4907764;29;20860;-90
2021/03/13 05:37:46;;;;;;;6.97;3.60;;;5.80;99.90;;;;;;4916146;29;20639;-88
2021/03/13 05:40:18;;;;;;;6.83;3.83;;;5.80;99.90;;;;;;4912471;29;20205;-87
2021/03/13 05:42:50;;;;;;;5.33;3.40;;;5.70;99.90;;;;;;4914742;29;20638;-87
2021/03/13 05:45:23;;;;;;;5.63;3.60;;;5.70;99.90;;;;;;4908223;29;20655;-87
2021/03/13 05:47:55;;;;;;;7.07;3.63;;;5.70;99.90;;;;;;4905951;29;20206;-86
2021/03/13 05:50:29;;;;;;;7.70;4.00;;;5.70;99.90;;;;;;4895671;29;20205;-87
2021/03/13 05:53:05;;;;;;;8.23;4.07;;;5.70;99.90;;;;;;4930178;29;20210;-85
2021/03/13 05:55:36;;;;;;;8.37;4.30;;;5.70;99.90;;;;;;4932294;29;20190;-87
2021/03/13 05:58:07;;;;;;;7.83;4.90;;;5.70;99.90;;;;;;4909444;29;20345;-86
2021/03/13 06:00:40;;;;;;;9.07;4.43;;;5.70;99.90;;;;;;4563735;28;10000490;-85
2021/03/13 06:03:11;;;;;;;7.40;4.73;;;5.70;99.90;;;;;;4906885;29;20214;-86
2021/03/13 06:05:42;;;;;;;10.30;4.90;;;5.70;99.90;;;;;;4902149;29;20255;-86
2021/03/13 06:08:12;;;;;;;10.77;5.07;;;5.70;99.90;;;;;;4907589;29;20264;-85
2021/03/13 06:10:43;;;;;;;9.73;5.37;;;5.60;99.90;;;;;;4908731;29;20824;-84
2021/03/13 06:13:14;;;;;;;12.00;5.93;;;5.60;99.90;;;;;;4896185;29;20237;-85
2021/03/13 06:15:48;;;;;;;13.27;6.67;;;5.60;99.90;;;;;;4923091;29;20206;-84
2021/03/13 06:18:21;;;;;;;14.33;6.83;;;5.60;99.90;;;;;;4915920;29;20878;-85
2021/03/13 06:20:52;;;;;;;14.67;7.63;;;5.60;99.90;;;;;;4922374;29;20292;-86
2021/03/13 06:23:22;;;;;;;16.17;8.67;;;5.60;99.90;;;;;;4916353;29;20218;-89
2021/03/13 06:25:58;;;;;;;14.83;8.53;;;5.50;99.90;;;;;;4906412;29;20217;-89
2021/03/13 06:28:32;;;;;;;20.63;10.07;;;5.50;99.90;;;;;;4908421;29;20217;-89
2021/03/13 06:31:12;;;;;;;15.90;9.00;;;5.50;99.90;;;;;;4907570;29;20206;-88
2021/03/13 06:33:46;;;;;;;17.17;8.53;;;5.40;99.90;;;;;;4903095;29;20209;-89
2021/03/13 06:36:23;;;;;;;17.27;10.20;;;5.40;99.90;;;;;;4885436;29;20274;-89
2021/03/13 06:38:55;;;;;;;28.20;11.43;;;5.30;99.90;;;;;;4883825;29;20237;-90
2021/03/13 06:41:26;;;;;;;26.63;12.83;;;5.20;99.90;;;;;;4887184;29;20270;-90
2021/03/13 06:43:58;;;;;;;22.70;14.03;;;5.20;99.90;;;;;;4900794;29;20213;-88
2021/03/13 06:46:34;;;;;;;31.77;15.87;;;5.10;99.90;;;;;;4899981;29;20221;-90
2021/03/13 06:49:08;;;;;;;28.80;15.17;;;5.00;99.90;;;;;;4916931;29;20297;-89
2021/03/13 06:51:38;;;;;;;28.17;14.00;;;5.00;99.90;;;;;;4902305;29;20220;-88
2021/03/13 06:54:22;;;;;;;30.50;16.27;;;4.90;99.90;;;;;;4902655;29;20213;-88
2021/03/13 06:57:00;;;;;;;27.97;14.90;;;4.90;99.90;;;;;;4886367;29;20246;-90
2021/03/13 06:59:34;;;;;;;33.07;15.10;;;4.80;99.90;;;;;;4899834;29;20267;-89
2021/03/13 07:02:08;;;;;;;33.77;16.77;;;4.80;99.90;;;;;;4914744;29;20476;-88
2021/03/13 07:04:42;;;;;;;37.53;18.03;;;4.80;99.90;;;;;;4901030;29;20300;-90
2021/03/13 07:07:14;;;;;;;37.00;18.97;;;4.70;99.90;;;;;;4914511;29;20250;-89
2021/03/13 07:09:51;;;;;;;40.60;20.50;;;4.70;99.90;;;;;;4911252;29;20210;-90
2021/03/13 07:12:28;;;;;;;41.20;21.93;;;4.60;99.90;;;;;;4914587;29;20236;-89
2021/03/13 07:15:13;;;;;;;45.13;23.47;;;4.60;99.90;;;;;;4904852;29;20510;-89
2021/03/13 07:17:49;;;;;;;49.67;25.67;;;4.50;99.90;;;;;;4898799;29;20234;-90
2021/03/13 07:20:22;;;;;;;50.83;25.33;;;4.50;99.90;;;;;;4899020;29;20298;-89
2021/03/13 07:22:56;;;;;;;39.13;22.33;;;4.50;99.90;;;;;;4902601;29;20210;-90
2021/03/13 07:25:29;;;;;;;37.23;19.63;;;4.40;99.90;;;;;;4904240;29;20210;-90
2021/03/13 07:28:02;;;;;;;41.80;23.10;;;4.40;99.90;;;;;;4900396;29;20321;-89
2021/03/13 07:30:35;;;;;;;51.80;25.30;;;4.40;99.90;;;;;;4902002;29;20297;-89
2021/03/13 07:33:12;;;;;;;52.00;25.87;;;4.40;99.90;;;;;;4901544;29;20217;-89
2021/03/13 07:35:51;;;;;;;58.17;26.67;;;4.40;99.90;;;;;;4894320;29;20206;-89
2021/03/13 07:38:28;;;;;;;43.93;24.57;;;4.30;99.90;;;;;;4909636;29;20236;-90
2021/03/13 07:41:00;;;;;;;44.73;21.80;;;4.30;99.90;;;;;;4884043;29;20210;-90
2021/03/13 07:43:34;;;;;;;39.80;20.87;;;4.30;99.90;;;;;;4889750;29;20217;-89
2021/03/13 07:46:05;;;;;;;33.30;18.27;;;4.30;99.90;;;;;;4902080;29;20214;-90
2021/03/13 07:48:39;;;;;;;33.10;17.50;;;4.30;99.90;;;;;;4902031;29;20232;-89
2021/03/13 07:51:11;;;;;;;27.33;14.20;;;4.20;99.90;;;;;;4901085;29;20749;-89
2021/03/13 07:53:43;;;;;;;23.17;12.53;;;4.20;99.90;;;;;;4916874;29;20213;-87
2021/03/13 07:56:16;;;;;;;23.07;10.87;;;4.10;99.90;;;;;;4920232;29;20212;-88
2021/03/13 07:58:46;;;;;;;18.57;10.00;;;4.10;99.90;;;;;;4920254;29;20247;-88
2021/03/13 08:01:17;;;;;;;16.07;9.60;;;4.00;99.90;;;;;;4916310;29;20236;-90
2021/03/13 08:03:51;;;;;;;16.93;8.47;;;4.00;99.90;;;;;;4901225;29;20225;-89
2021/03/13 08:06:22;;;;;;;16.83;7.60;;;4.10;99.90;;;;;;4902571;29;20245;-89
2021/03/13 08:08:54;;;;;;;14.90;7.60;;;4.00;99.90;;;;;;4929807;29;20196;-90
2021/03/13 08:11:28;;;;;;;16.63;7.90;;;4.00;99.90;;;;;;4924452;29;20238;-88
2021/03/13 08:14:01;;;;;;;11.53;6.90;;;4.00;99.90;;;;;;4930411;29;20242;-90
2021/03/13 08:16:49;;;;;;;13.63;7.20;;;3.90;99.90;;;;;;4936128;29;20198;-90
2021/03/13 08:19:46;;;;;;;11.67;6.83;;;3.90;99.90;;;;;;4914901;29;20210;-90
2021/03/13 08:22:22;;;;;;;13.60;6.90;;;3.90;99.90;;;;;;4901540;29;20245;-91
2021/03/13 08:24:54;;;;;;;11.73;6.50;;;3.80;99.90;;;;;;4900109;29;20210;-90
2021/03/13 08:27:45;;;;;;;9.70;6.20;;;3.80;99.90;;;;;;4906977;29;20233;-89
2021/03/13 08:30:21;;;;;;;10.90;6.23;;;3.70;99.90;;;;;;4905467;29;20221;-88
2021/03/13 08:33:04;;;;;;;11.43;6.67;;;3.70;99.90;;;;;;4909435;29;20217;-89
2021/03/13 08:35:53;;;;;;;10.63;6.30;;;3.60;99.90;;;;;;4909914;29;20252;-89
2021/03/13 08:38:56;;;;;;;10.47;6.80;;;3.60;99.90;;;;;;4912396;29;20229;-89
2021/03/13 08:41:59;;;;;;;12.50;6.73;;;3.50;99.90;;;;;;4881831;29;20638;-89
2021/03/13 08:44:34;;;;;;;12.90;7.83;;;3.50;99.90;;;;;;4830242;29;20212;-90
2021/03/13 08:47:10;;;;;;;13.40;7.43;;;3.50;99.90;;;;;;4832280;29;20269;-89
2021/03/13 08:49:45;;;;;;;13.97;8.93;;;3.50;99.90;;;;;;4875802;29;20235;-89
2021/03/13 08:52:29;;;;;;;17.97;10.23;;;3.40;99.90;;;;;;4906760;29;20204;-89
2021/03/13 08:54:59;;;;;;;15.73;9.93;;;3.30;99.90;;;;;;4908306;29;20213;-89
2021/03/13 08:57:49;;;;;;;15.23;10.23;;;3.30;99.90;;;;;;4899000;29;20229;-88
2021/03/13 09:00:20;;;;;;;13.27;9.10;;;3.20;99.90;;;;;;4907924;29;20269;-88
2021/03/13 09:02:51;;;;;;;14.60;9.07;;;3.20;99.90;;;;;;4907341;29;20217;-89
2021/03/13 09:05:25;;;;;;;12.50;8.57;;;3.20;99.90;;;;;;4908402;29;20209;-89
2021/03/13 09:07:58;;;;;;;13.77;7.80;;;3.20;99.90;;;;;;4909002;29;20213;-88
2021/03/13 09:10:29;;;;;;;12.70;7.70;;;3.20;99.90;;;;;;4909564;29;20217;-89
2021/03/13 09:13:00;;;;;;;14.27;7.57;;;3.20;99.90;;;;;;4910827;29;20261;-88
2021/03/13 09:15:34;;;;;;;10.70;7.07;;;3.20;99.90;;;;;;4910228;29;20213;-89
2021/03/13 09:18:06;;;;;;;12.67;7.40;;;3.20;99.90;;;;;;4911672;29;20335;-88
2021/03/13 09:20:42;;;;;;;14.13;6.83;;;3.20;99.90;;;;;;4914955;29;20209;-89
2021/03/13 09:23:19;;;;;;;14.33;7.47;;;3.20;99.90;;;;;;4913415;29;20249;-90
2021/03/13 09:25:50;;;;;;;11.67;6.83;;;3.20;99.90;;;;;;4911676;29;20250;-89
2021/03/13 09:28:21;;;;;;;10.13;6.03;;;3.20;99.90;;;;;;4908761;29;20277;-89
2021/03/13 09:30:52;;;;;;;9.53;6.33;;;3.20;99.90;;;;;;4922608;29;20284;-89
2021/03/13 09:33:24;;;;;;;13.97;6.77;;;3.20;99.90;;;;;;4929100;29;20201;-89
2021/03/13 09:35:54;;;;;;;9.87;6.47;;;3.10;99.90;;;;;;4919253;29;20209;-90
2021/03/13 09:38:28;;;;;;;9.60;5.70;;;3.10;99.90;;;;;;4897072;29;20245;-91
2021/03/13 09:41:00;;;;;;;13.23;6.57;;;3.00;99.90;;;;;;4915682;29;20220;-87
2021/03/13 09:43:41;;;;;;;9.87;6.20;;;3.00;99.90;;;;;;4920157;29;20220;-89
2021/03/13 09:46:17;;;;;;;8.97;5.63;;;3.00;99.90;;;;;;4925283;29;20268;-89
2021/03/13 09:48:49;;;;;;;9.80;5.53;;;3.00;99.90;;;;;;4919536;29;20287;-88
2021/03/13 09:51:19;;;;;;;9.93;6.03;;;3.00;99.90;;;;;;4926485;29;20630;-88
2021/03/13 09:53:51;;;;;;;8.60;5.77;;;3.00;99.90;;;;;;4923268;29;20658;-88
2021/03/13 09:56:31;;;;;;;9.83;5.80;;;3.00;99.90;;;;;;4920363;29;20201;-88
2021/03/13 09:59:01;;;;;;;11.47;5.67;;;2.90;99.90;;;;;;4910850;29;20229;-89
2021/03/13 10:01:32;;;;;;;8.73;5.77;;;3.00;99.90;;;;;;4922557;29;20209;-89
2021/03/13 10:04:04;;;;;;;11.33;5.57;;;3.00;99.90;;;;;;4912585;29;20293;-88
2021/03/13 10:06:36;;;;;;;9.33;5.67;;;3.00;99.90;;;;;;4914271;29;20209;-90
2021/03/13 10:09:12;;;;;;;8.07;5.20;;;3.00;99.90;;;;;;4922239;29;20239;-89
2021/03/13 10:11:44;;;;;;;8.50;5.00;;;3.00;99.90;;;;;;4915813;29;20205;-89
2021/03/13 10:14:20;;;;;;;9.33;5.47;;;2.90;99.90;;;;;;4896354;29;20302;-88
2021/03/13 10:17:01;;;;;;;7.83;5.33;;;2.90;99.90;;;;;;4883716;29;20237;-88
2021/03/13 10:19:39;;;;;;;8.63;4.90;;;2.90;99.90;;;;;;4902669;29;20228;-89
2021/03/13 10:22:15;;;;;;;8.37;5.03;;;2.80;99.90;;;;;;4915860;29;20204;-89
2021/03/13 10:24:54;;;;;;;8.00;5.10;;;2.80;99.90;;;;;;4903725;29;20209;-87
2021/03/13 10:27:30;;;;;;;9.60;4.80;;;2.70;99.90;;;;;;4911150;29;20655;-89
2021/03/13 10:30:03;;;;;;;7.00;4.43;;;2.70;99.90;;;;;;4904732;29;20213;-88
2021/03/13 10:32:36;;;;;;;6.97;4.93;;;2.70;99.90;;;;;;4904622;29;20293;-90
2021/03/13 10:35:13;;;;;;;9.97;5.00;;;2.70;99.90;;;;;;4903648;29;20213;-89
2021/03/13 10:37:52;;;;;;;7.50;4.53;;;2.70;99.90;;;;;;4919088;29;20256;-90
2021/03/13 10:40:40;;;;;;;7.90;5.30;;;2.60;99.90;;;;;;4917405;29;20232;-89
2021/03/13 10:43:24;;;;;;;9.03;5.23;;;2.60;99.90;;;;;;4902358;29;20272;-89
2021/03/13 10:46:19;;;;;;;9.30;5.47;;;2.60;99.90;;;;;;4911723;29;20220;-89
2021/03/13 10:49:02;;;;;;;8.43;5.50;;;2.50;99.90;;;;;;4907423;29;20220;-90
2021/03/13 10:51:40;;;;;;;9.17;5.73;;;2.40;99.90;;;;;;4917619;29;20276;-90
2021/03/13 10:54:23;;;;;;;8.00;5.60;;;2.40;99.90;;;;;;4920588;29;20212;-90
2021/03/13 10:56:57;;;;;;;6.77;4.60;;;2.40;99.90;;;;;;4911200;29;20332;-90
2021/03/13 10:59:35;;;;;;;11.30;5.13;;;2.40;99.90;;;;;;4901030;29;20668;-89
2021/03/13 11:02:06;;;;;;;8.50;4.60;;;2.40;99.90;;;;;;4905567;29;20202;-89
2021/03/13 11:04:37;;;;;;;9.83;5.03;;;2.30;99.90;;;;;;4900394;29;20579;-89
2021/03/13 11:07:09;;;;;;;9.00;5.43;;;2.30;99.90;;;;;;4900311;29;20214;-90
2021/03/13 11:09:39;;;;;;;9.90;5.20;;;2.30;99.90;;;;;;4911855;29;20674;-89
2021/03/13 11:12:43;;;;;;;7.27;4.70;;;2.30;99.90;;;;;;4921405;29;20238;-90
2021/03/13 11:15:17;;;;;;;8.60;5.13;;;2.30;99.90;;;;;;4903617;29;20332;-90
2021/03/13 11:17:48;;;;;;;9.33;5.10;;;2.30;99.90;;;;;;4918044;29;20553;-90
2021/03/13 11:20:20;;;;;;;8.97;5.27;;;2.30;99.90;;;;;;4925869;29;20217;-88
2021/03/13 11:22:50;;;;;;;8.97;4.77;;;2.30;99.90;;;;;;4928156;29;20216;-88
2021/03/13 11:25:22;;;;;;;8.53;4.80;;;2.30;99.90;;;;;;4924349;29;20242;-88
2021/03/13 11:27:53;;;;;;;10.97;5.00;;;2.30;99.90;;;;;;4932172;29;20189;-88
2021/03/13 11:30:27;;;;;;;9.67;4.57;;;2.30;99.90;;;;;;4923652;29;20214;-89
2021/03/13 11:32:58;;;;;;;7.00;4.50;;;2.30;99.90;;;;;;4921449;29;20648;-89
2021/03/13 11:35:30;;;;;;;8.50;5.10;;;2.30;99.90;;;;;;4887940;29;20236;-89
2021/03/13 11:38:01;;;;;;;6.80;4.37;;;2.30;99.90;;;;;;4914510;29;20340;-90
2021/03/13 11:40:32;;;;;;;9.23;4.73;;;2.30;99.90;;;;;;4899820;29;20214;-90
2021/03/13 11:43:04;;;;;;;8.30;5.20;;;2.20;99.90;;;;;;4894053;29;20587;-92
2021/03/13 11:45:36;;;;;;;8.10;5.13;;;2.20;99.90;;;;;;4899983;29;20682;-89
2021/03/13 11:48:07;;;;;;;7.63;5.13;;;2.20;99.90;;;;;;4899752;29;20221;-88
2021/03/13 11:50:39;;;;;;;9.10;5.90;;;2.20;99.90;;;;;;4899792;29;20628;-90
2021/03/13 11:53:10;;;;;;;7.47;5.37;;;2.10;99.90;;;;;;4884229;29;20214;-89
2021/03/13 11:55:41;;;;;;;8.13;5.90;;;2.10;99.90;;;;;;4908366;29;20217;-89
2021/03/13 11:58:12;;;;;;;8.20;5.90;;;2.10;99.90;;;;;;4918445;29;20233;-88
2021/03/13 12:01:05;;;;;;;9.10;5.63;;;2.00;99.90;;;;;;4909365;29;20213;-89
2021/03/13 12:03:36;;;;;;;10.27;5.07;;;1.90;99.90;;;;;;4904727;29;20210;-88
2021/03/13 12:06:08;;;;;;;11.20;5.60;;;1.90;99.90;;;;;;4930776;29;20213;-90
2021/03/13 12:08:56;;;;;;;7.60;4.67;;;2.00;99.90;;;;;;4908918;29;20227;-87
2021/03/13 12:11:27;;;;;;;5.57;4.50;;;2.00;99.90;;;;;;4918390;29;20201;-90
2021/03/13 12:13:58;;;;;;;5.87;3.93;;;2.00;99.90;;;;;;4922922;29;20244;-90
2021/03/13 12:16:31;;;;;;;9.70;4.50;;;2.00;99.90;;;;;;4906712;29;20238;-90
2021/03/13 12:19:02;;;;;;;7.43;4.07;;;2.00;99.90;;;;;;4904456;29;20327;-90
2021/03/13 12:21:33;;;;;;;6.57;4.23;;;2.00;99.90;;;;;;4902346;29;20210;-89
2021/03/13 12:24:04;;;;;;;6.83;3.60;;;2.10;99.90;;;;;;4900654;29;20306;-90
2021/03/13 12:26:36;;;;;;;4.37;3.33;;;2.10;99.90;;;;;;4903612;29;20209;-90
2021/03/13 12:29:07;;;;;;;10.40;4.53;;;2.10;99.90;;;;;;4920392;29;20213;-89
2021/03/13 12:31:39;;;;;;;7.30;4.20;;;2.10;99.90;;;;;;4922339;29;20201;-90
2021/03/13 12:34:12;;;;;;;4.57;3.83;;;2.10;99.90;;;;;;4938040;29;20209;-90
2021/03/13 12:36:43;;;;;;;8.37;4.47;;;2.10;99.90;;;;;;4922218;29;20772;-90
2021/03/13 12:39:18;;;;;;;5.63;3.80;;;2.10;99.90;;;;;;4922553;29;20231;-90
2021/03/13 12:41:49;;;;;;;4.57;3.43;;;2.00;99.90;;;;;;4921151;29;20254;-89
2021/03/13 12:44:20;;;;;;;5.27;4.10;;;2.00;99.90;;;;;;4916673;29;20249;-90
2021/03/13 12:46:55;;;;;;;5.60;3.43;;;2.00;99.90;;;;;;4902723;29;20241;-90
2021/03/13 12:49:27;;;;;;;7.37;3.30;;;2.00;99.90;;;;;;4902900;29;20221;-90
2021/03/13 12:51:57;;;;;;;5.13;3.10;;;2.00;99.90;;;;;;4907928;29;20749;-91
2021/03/13 12:54:27;;;;;;;5.83;3.13;;;1.90;99.90;;;;;;4897474;29;20316;-90
2021/03/13 12:56:57;;;;;;;4.53;3.27;;;2.00;99.90;;;;;;4905679;29;20225;-90
2021/03/13 12:59:30;;;;;;;5.60;3.37;;;2.00;99.90;;;;;;4903413;29;20308;-90
2021/03/13 13:02:02;;;;;;;8.03;3.40;;;2.00;99.90;;;;;;4911794;29;20657;-93
2021/03/13 13:04:33;;;;;;;5.97;3.13;;;2.00;99.90;;;;;;4880815;29;20302;-90
2021/03/13 13:07:04;;;;;;;4.13;3.20;;;2.10;99.90;;;;;;4902313;29;20216;-91
2021/03/13 13:09:44;;;;;;;5.30;2.97;;;2.10;99.90;;;;;;4911505;29;20206;-90
2021/03/13 13:12:14;;;;;;;5.07;3.40;;;2.10;99.90;;;;;;4899889;29;20245;-90
2021/03/13 13:14:45;;;;;;;3.47;2.90;;;2.00;99.90;;;;;;4899684;29;20209;-90
2021/03/13 13:17:18;;;;;;;5.87;3.33;;;2.00;99.90;;;;;;4902126;29;20209;-90
2021/03/13 13:19:49;;;;;;;4.50;2.83;;;2.00;99.90;;;;;;4914409;29;20297;-90
2021/03/13 13:22:20;;;;;;;5.80;2.93;;;2.00;99.90;;;;;;4904242;29;20224;-90
2021/03/13 13:24:52;;;;;;;4.80;3.17;;;2.00;99.90;;;;;;4904383;29;20242;-91
2021/03/13 13:27:23;;;;;;;6.93;3.10;;;2.10;99.90;;;;;;4904277;29;20208;-90
2021/03/13 13:29:54;;;;;;;4.93;3.00;;;2.10;99.90;;;;;;4914096;29;20217;-90
2021/03/13 13:32:26;;;;;;;4.57;2.57;;;2.10;99.90;;;;;;4919605;29;20232;-90
2021/03/13 13:34:59;;;;;;;5.37;3.10;;;2.10;99.90;;;;;;4914247;29;20210;-90
2021/03/13 13:37:29;;;;;;;4.50;3.20;;;2.10;99.90;;;;;;4901333;29;20312;-90
2021/03/13 13:40:08;;;;;;;6.40;3.13;;;2.10;99.90;;;;;;4912268;29;20232;-91
2021/03/13 13:42:39;;;;;;;4.07;2.67;;;2.10;99.90;;;;;;4916295;29;20275;-90
2021/03/13 13:45:13;;;;;;;4.53;2.93;;;2.10;99.90;;;;;;4902242;29;20251;-91
2021/03/13 13:47:46;;;;;;;5.63;3.13;;;2.10;99.90;;;;;;4901958;29;20209;-91
2021/03/13 13:50:19;;;;;;;4.20;2.83;;;2.10;99.90;;;;;;4920747;29;20666;-91
2021/03/13 13:52:50;;;;;;;4.80;3.00;;;2.10;99.90;;;;;;4898166;29;20252;-90
2021/03/13 13:55:21;;;;;;;5.07;3.10;;;2.00;99.90;;;;;;4901578;29;20209;-89
2021/03/13 13:57:53;;;;;;;4.33;3.17;;;2.10;99.90;;;;;;4922769;29;20236;-89
2021/03/13 14:00:26;;;;;;;5.57;3.10;;;2.00;99.90;;;;;;4921690;29;20292;-89
2021/03/13 14:02:59;;;;;;;4.80;2.90;;;1.90;99.90;;;;;;4923068;29;20205;-89
2021/03/13 14:05:30;;;;;;;4.47;3.07;;;1.90;99.90;;;;;;4905027;29;20301;-90
2021/03/13 14:08:03;;;;;;;8.47;3.37;;;1.80;99.90;;;;;;4903859;29;20218;-90
2021/03/13 14:10:35;;;;;;;5.50;3.47;;;1.80;99.90;;;;;;4905169;29;20224;-89
2021/03/13 14:13:06;;;;;;;4.10;3.00;;;1.80;99.90;;;;;;4906730;29;20208;-90
2021/03/13 14:15:37;;;;;;;5.63;3.73;;;1.70;99.90;;;;;;4907880;29;20206;-90
2021/03/13 14:18:10;;;;;;;5.17;3.20;;;1.70;99.90;;;;;;4910168;29;20229;-90
2021/03/13 14:20:41;;;;;;;5.73;2.87;;;1.70;99.90;;;;;;4916996;29;20268;-90
2021/03/13 14:23:14;;;;;;;5.23;3.17;;;1.70;99.90;;;;;;4895892;29;20217;-91
2021/03/13 14:25:44;;;;;;;7.67;3.83;;;1.70;99.90;;;;;;4897144;29;20204;-90
2021/03/13 14:28:15;;;;;;;3.67;3.00;;;1.70;99.90;;;;;;4918289;29;20260;-90
2021/03/13 14:30:46;;;;;;;4.53;3.00;;;1.70;99.90;;;;;;4913918;29;20233;-89
2021/03/13 14:33:19;;;;;;;5.07;3.50;;;1.70;99.90;;;;;;4900775;29;20229;-90
2021/03/13 14:35:53;;;;;;;4.77;3.30;;;1.70;99.90;;;;;;4912134;29;20261;-90
2021/03/13 14:38:24;;;;;;;5.40;3.47;;;1.70;99.90;;;;;;4921154;29;20769;-90
2021/03/13 14:40:55;;;;;;;5.33;3.30;;;1.60;99.90;;;;;;4921980;29;20220;-89
2021/03/13 14:43:26;;;;;;;5.90;4.00;;;1.60;99.90;;;;;;4917264;29;20339;-90
2021/03/13 14:45:58;;;;;;;5.40;4.03;;;1.60;99.90;;;;;;4939871;29;20243;-90
2021/03/13 14:48:30;;;;;;;7.37;3.83;;;1.70;99.90;;;;;;4922988;29;20223;-90
2021/03/13 14:51:01;;;;;;;7.40;3.70;;;1.70;99.90;;;;;;4918777;29;20343;-90
2021/03/13 14:53:39;;;;;;;6.73;3.90;;;1.70;99.90;;;;;;4905662;29;20204;-89
2021/03/13 14:56:17;;;;;;;7.00;3.90;;;1.80;99.90;;;;;;4899744;29;20206;-89
2021/03/13 14:58:54;;;;;;;10.03;4.10;;;1.80;99.90;;;;;;4908447;29;20291;-90
2021/03/13 15:01:28;;;;;;;4.80;3.80;;;1.90;99.90;;;;;;4917225;29;20208;-90
2021/03/13 15:04:06;;;;;;;8.67;4.80;;;1.90;99.90;;;;;;4905271;29;20255;-90
2021/03/13 15:06:37;;;;;;;5.90;3.80;;;2.00;99.90;;;;;;4892835;29;20743;-90
2021/03/13 15:09:08;;;;;;;9.40;4.67;;;2.10;99.90;;;;;;4899279;29;20297;-91
2021/03/13 15:11:39;;;;;;;6.47;4.07;;;2.10;99.90;;;;;;4901855;29;20217;-90
2021/03/13 15:14:12;;;;;;;5.90;4.20;;;2.20;99.90;;;;;;4915241;29;20213;-90
2021/03/13 15:16:43;;;;;;;6.27;4.17;;;2.20;99.90;;;;;;4902479;29;20246;-90
2021/03/13 15:19:16;;;;;;;6.33;4.10;;;2.30;99.90;;;;;;4914751;29;20239;-90
2021/03/13 15:21:49;;;;;;;6.13;4.50;;;2.40;99.90;;;;;;4907508;29;20224;-89
2021/03/13 15:24:23;;;;;;;7.10;4.83;;;2.50;99.90;;;;;;4908467;29;20214;-90
2021/03/13 15:26:53;;;;;;;5.10;3.93;;;2.60;99.90;;;;;;4901701;29;20280;-89
2021/03/13 15:29:24;;;;;;;6.90;3.93;;;2.60;99.90;;;;;;4919771;29;20237;-92
2021/03/13 15:31:55;;;;;;;7.17;4.57;;;2.80;99.90;;;;;;4921643;29;20208;-89
2021/03/13 15:34:28;;;;;;;8.10;4.07;;;2.80;99.90;;;;;;4886565;29;20314;-90
2021/03/13 15:36:59;;;;;;;8.83;4.10;;;2.90;99.90;;;;;;4900530;29;20209;-91
2021/03/13 15:39:30;;;;;;;7.23;4.23;;;3.10;99.90;;;;;;4915648;29;20240;-91
2021/03/13 15:42:06;;;;;;;7.10;4.30;;;3.20;99.90;;;;;;4908341;29;20225;-89
2021/03/13 15:44:37;;;;;;;8.37;3.90;;;3.30;99.90;;;;;;4909065;29;20206;-89
2021/03/13 15:47:08;;;;;;;5.90;3.97;;;3.50;99.90;;;;;;4906849;29;20340;-89